עמוד ראשי
METAR-TAF:

METAR-TAF

שדות תעופה :

ויניה דל מאר, צ'ילה

קו רוחב: 32-56-59S, קו אורך: 71-28-43W, גובה: 141מטר

תצפית מזג אוויר נוכחית

הדו"ח נערך לפני 1 שעות ו 3דקות, בשעה 10:00 UTC
רוח 3קשר עם כיוונים משתנים
טמפרטורת 8 צלסיוס
לחות 81%
לחץ 1019 hPa
ראות 10 קילומטר או יותר
עננים פזורים בגובה 7000רגל

METAR: SCVM 241000Z VRB03KT 9999 SCT070 08/05 Q1019

זמן: 07:03 (11:03 UTC)

תחזית

הדו"ח נערך לפני 6 שעות ו 55דקות, בשעה 04:08 UTC
תחזית בתוקף מ 24 ב 06 UTC עד 25 ב 06 UTC
רוח 2קשר עם כיוונים משתנים
ראות 10 קילומטר או יותר
ללא עננים שבסיסם נמוך מ 5000 רגל או קומולונימבוס
יעשה מ
24 ב 16 UTC עד 24 ב 18 UTC
רוח 10קשר מכיוון מערב/צפון-מערב
יעשה מ
25 ב 02 UTC עד 25 ב 04 UTC
רוח 4קשר מכיוון דרום/דרום-מערב

TAF: SCVM 240408Z 2406/2506 VRB02KT CAVOK TX14/2419Z TN07/2410Z BECMG 2416/2418 29010KT BECMG 2502/2504 20004KT

תצפיות ותחזיות מזג אוויר לגבי יותר מ- 4,000 שדות תעופה ברחבי העולם. דוחות METAR ו- TAF.

התחנות הזמינות מסומנות בנקודות צהובות ואדומות על גבי המפה.

העבר את העכבר לנקודה הצבעונית על מנת לראות את שם התחנה.

לאחר מכן, לחץ כדי לראות את תוכן ואת תחזיות מזג האוויר.

כדי לשנות את המפה: לחץ על הכפתורים הירוקים עם הפלוס השחור כדי להתקרב; על הכפתור הירוק עם המקף כדי להתרחק; או בחיצים הירוקים למפות סמוכות.


METAR-TAF: